createdAt,value
2023-02-06T16:53:34.748Z,102634.05
2023-02-06T16:57:45.077Z,102638.08
2023-02-06T17:02:31.016Z,102650.80
2023-02-06T17:16:07.584Z,102678.70
2023-02-06T17:20:38.915Z,102687.23
2023-02-06T17:24:42.552Z,102683.39
2023-02-06T17:28:46.460Z,102681.64
2023-02-06T17:33:53.332Z,102674.48
2023-02-06T17:37:56.419Z,102670.63
2023-02-06T17:42:03.684Z,102670.45
2023-02-06T17:46:07.535Z,102668.70
2023-02-06T17:50:39.159Z,102668.05
2023-02-06T17:54:42.915Z,102682.91
2023-02-06T17:58:52.209Z,102686.60
2023-02-06T18:02:58.110Z,102685.19
2023-02-06T18:08:06.717Z,102676.30
2023-02-06T18:12:09.907Z,102670.72
2023-02-06T18:17:28.324Z,102665.13
2023-02-06T18:21:36.869Z,102664.79
2023-02-06T18:25:43.438Z,102661.98
2023-02-06T18:29:50.224Z,102657.09
2023-02-06T18:33:54.418Z,102652.55
2023-02-06T18:37:57.473Z,102652.74
2023-02-06T18:42:22.358Z,102653.42
2023-02-06T18:46:25.522Z,102659.54
2023-02-06T18:50:39.499Z,102661.46
2023-02-06T18:54:42.715Z,102668.61
2023-02-06T18:58:50.965Z,102662.17
2023-02-06T19:02:54.679Z,102667.75
2023-02-06T19:06:57.731Z,102677.52
2023-02-06T19:11:00.738Z,102682.06
2023-02-06T19:15:04.945Z,102678.56
2023-02-06T19:19:07.977Z,102680.46
2023-02-06T19:23:11.008Z,102684.65
2023-02-06T19:27:17.455Z,102696.85
2023-02-06T19:31:24.115Z,102700.16
2023-02-06T19:35:28.499Z,102704.19
2023-02-06T19:45:35.231Z,102718.80
2023-02-06T19:49:38.951Z,102727.31
2023-02-06T19:59:27.090Z,102754.27
2023-02-06T20:04:03.543Z,102757.59
2023-02-06T20:08:06.553Z,102764.21
2023-02-06T20:12:15.327Z,102776.41
2023-02-06T20:16:21.453Z,102764.70
2023-02-06T20:20:25.083Z,102764.70
2023-02-06T20:24:32.602Z,102765.75
2023-02-06T20:28:57.729Z,102778.28
2023-02-06T20:33:00.725Z,102799.34
2023-02-06T20:37:18.653Z,102807.17
2023-02-06T20:41:23.002Z,102804.85
2023-02-06T20:45:34.356Z,102809.11
2023-02-06T20:49:37.739Z,102805.71
2023-02-06T20:54:07.136Z,102814.34
2023-02-06T20:58:11.154Z,102811.16
2023-02-06T21:02:51.431Z,102799.69
2023-02-06T21:06:56.548Z,102792.55
2023-02-06T21:10:59.659Z,102797.05
2023-02-06T21:15:15.256Z,102794.91
2023-02-06T21:19:46.639Z,102788.77
2023-02-06T21:23:49.778Z,102789.27
2023-02-06T21:27:54.042Z,102787.06
2023-02-06T21:32:12.196Z,102774.88
2023-02-06T21:36:16.539Z,102765.19
2023-02-06T21:41:00.815Z,102771.01
2023-02-06T21:45:04.433Z,102778.02
2023-02-06T21:54:55.877Z,102771.48
2023-02-06T21:58:58.977Z,102772.35
2023-02-06T22:04:00.066Z,102772.27
2023-02-06T22:08:03.707Z,102774.20
2023-02-06T22:12:07.617Z,102780.13
2023-02-06T22:16:12.969Z,102779.94
2023-02-06T22:20:16.463Z,102775.40
2023-02-06T22:24:20.124Z,102769.00
2023-02-06T22:28:31.732Z,102773.34
2023-02-06T22:32:38.723Z,102778.41
2023-02-06T22:36:44.072Z,102772.88
2023-02-06T22:40:47.887Z,102774.17
2023-02-06T22:44:52.164Z,102772.86
2023-02-06T22:48:56.755Z,102780.89
2023-02-06T22:53:18.616Z,102780.59
2023-02-06T22:57:22.244Z,102786.54
2023-02-06T23:01:30.770Z,102797.98
2023-02-06T23:05:36.087Z,102803.32
2023-02-06T23:09:40.817Z,102818.66
2023-02-06T23:13:44.434Z,102814.48
2023-02-06T23:17:49.788Z,102826.54
2023-02-06T23:21:53.223Z,102832.12
2023-02-06T23:25:59.186Z,102839.84
2023-02-06T23:30:02.891Z,102835.57
2023-02-06T23:34:06.515Z,102838.50
2023-02-06T23:38:11.395Z,102837.38
2023-02-06T23:42:14.982Z,102838.08
2023-02-06T23:46:20.326Z,102837.54
2023-02-06T23:50:25.129Z,102835.85
2023-02-06T23:54:28.715Z,102837.59
2023-02-06T23:58:32.550Z,102841.68
